HND weather

Tokyo Haneda International Airport
Tokyo, Tōkyō Prefecture, Japan

Public forecast

Using degrees Celsius for public forecast. Weather courtesy of forecast.io.

Current aviation weather report (METAR) for Tokyo Haneda International Airport

Retrieved 2019/10/19 21:30 UTC (29 seconds ago):

RJTT 192130Z 34003KT 9999 FEW015 BKN050 BKN/// 20/18 Q1014 NOSIG RMK 1CU015 5SC050 A2997

Aviation forecast (TAF) for Tokyo Haneda International Airport

Retrieved 2019/10/19 18:41 UTC (3 hours ago):

TAF RJTT 191705Z 1918/2100 02010KT 9999 FEW015 BKN030 BECMG 2002/2004 08008KT BECMG 2012/2015 04012KT